createdAt,value
2019-05-26T00:01:06.655Z,9.98
2019-05-26T00:03:40.294Z,9.99
2019-05-26T00:06:13.739Z,10.01
2019-05-26T00:08:47.233Z,10.02
2019-05-26T00:11:20.785Z,10.04
2019-05-26T00:13:54.280Z,10.06
2019-05-26T00:16:27.762Z,10.07
2019-05-26T00:19:01.285Z,10.07
2019-05-26T00:21:34.817Z,10.07
2019-05-26T00:24:08.315Z,10.07
2019-05-26T00:26:41.783Z,10.07
2019-05-26T00:29:15.369Z,10.06
2019-05-26T00:31:48.839Z,10.07
2019-05-26T00:34:22.405Z,10.08
2019-05-26T00:36:55.872Z,10.07
2019-05-26T00:39:29.369Z,10.07
2019-05-26T00:42:02.973Z,10.06
2019-05-26T00:44:36.543Z,10.07
2019-05-26T00:47:10.209Z,10.07
2019-05-26T00:49:43.723Z,10.07
2019-05-26T00:52:17.323Z,10.03
2019-05-26T00:54:50.973Z,10.02
2019-05-26T00:57:24.586Z,10.01
2019-05-26T00:59:58.245Z,10.02
2019-05-26T01:02:31.761Z,10.02
2019-05-26T01:05:06.778Z,9.99
2019-05-26T01:07:40.384Z,9.97
2019-05-26T01:10:14.242Z,9.92
2019-05-26T01:12:47.727Z,9.86
2019-05-26T01:15:21.567Z,9.82
2019-05-26T01:17:55.029Z,9.80
2019-05-26T01:20:28.625Z,9.77
2019-05-26T01:23:02.095Z,9.72
2019-05-26T01:25:35.686Z,9.70
2019-05-26T01:28:09.287Z,9.69
2019-05-26T01:30:42.826Z,9.69
2019-05-26T01:33:16.357Z,9.66
2019-05-26T01:35:50.391Z,9.63
2019-05-26T01:38:24.798Z,9.58
2019-05-26T01:40:58.322Z,9.51
2019-05-26T01:43:31.799Z,9.48
2019-05-26T01:46:05.436Z,9.44
2019-05-26T01:48:38.919Z,9.42
2019-05-26T01:51:12.491Z,9.42
2019-05-26T01:53:45.979Z,9.42
2019-05-26T01:56:19.595Z,9.42
2019-05-26T01:58:53.582Z,9.42
2019-05-26T02:01:27.187Z,9.43
2019-05-26T02:04:00.677Z,9.39
2019-05-26T02:06:34.255Z,9.39
2019-05-26T02:09:08.655Z,9.40
2019-05-26T02:11:42.173Z,9.39
2019-05-26T02:14:15.646Z,9.39
2019-05-26T02:16:49.227Z,9.37
2019-05-26T02:19:22.932Z,9.38
2019-05-26T02:21:56.529Z,9.39
2019-05-26T02:24:30.048Z,9.43
2019-05-26T02:27:03.675Z,9.46
2019-05-26T02:29:37.228Z,9.46
2019-05-26T02:32:10.796Z,9.49
2019-05-26T02:34:44.257Z,9.52
2019-05-26T02:37:17.932Z,9.54
2019-05-26T02:39:51.457Z,9.56
2019-05-26T02:42:25.111Z,9.60
2019-05-26T02:44:59.543Z,9.61
2019-05-26T02:47:33.286Z,9.64
2019-05-26T02:50:07.913Z,9.66
2019-05-26T02:52:41.487Z,9.70
2019-05-26T02:55:17.205Z,9.74
2019-05-26T02:57:50.840Z,9.78
2019-05-26T03:00:42.740Z,9.82
2019-05-26T03:03:17.067Z,9.88
2019-05-26T03:05:52.065Z,9.91
2019-05-26T03:08:26.807Z,9.92
2019-05-26T03:11:01.338Z,9.94
2019-05-26T03:13:37.966Z,9.95
2019-05-26T03:16:11.666Z,9.99
2019-05-26T03:18:47.507Z,10.02
2019-05-26T03:21:23.171Z,10.06
2019-05-26T03:23:58.165Z,10.11
2019-05-26T03:26:31.872Z,10.14
2019-05-26T03:29:05.541Z,10.13
2019-05-26T03:31:39.057Z,10.16
2019-05-26T03:34:12.549Z,10.22
2019-05-26T03:36:46.040Z,10.27
2019-05-26T03:39:19.677Z,10.29
2019-05-26T03:41:53.144Z,10.37
2019-05-26T03:44:26.739Z,10.45
2019-05-26T03:47:00.273Z,10.50
2019-05-26T03:49:33.896Z,10.55
2019-05-26T03:52:07.510Z,10.61
2019-05-26T03:54:41.035Z,10.70
2019-05-26T03:57:14.646Z,10.76
2019-05-26T03:59:48.271Z,10.84
2019-05-26T04:02:21.827Z,10.94
2019-05-26T04:04:55.415Z,11.03
2019-05-26T04:07:28.971Z,11.10
2019-05-26T04:10:06.099Z,11.16
2019-05-26T04:12:39.534Z,11.20
2019-05-26T04:15:13.440Z,11.25
2019-05-26T04:17:46.956Z,11.31
2019-05-26T04:20:20.554Z,11.39
2019-05-26T04:22:54.042Z,11.46
2019-05-26T04:25:27.554Z,11.54
2019-05-26T04:28:01.034Z,11.59
2019-05-26T04:30:34.554Z,11.68
2019-05-26T04:33:08.127Z,11.76
2019-05-26T04:35:41.692Z,11.87
2019-05-26T04:38:15.287Z,11.90
2019-05-26T04:40:48.810Z,11.90
2019-05-26T04:43:22.282Z,12.00
2019-05-26T04:45:55.841Z,12.16
2019-05-26T04:48:29.406Z,12.31
2019-05-26T04:51:02.975Z,12.46
2019-05-26T04:53:36.442Z,12.57
2019-05-26T04:56:09.940Z,12.73
2019-05-26T04:58:43.486Z,12.73
2019-05-26T05:01:16.982Z,12.83
2019-05-26T05:03:50.542Z,13.12
2019-05-26T05:06:24.179Z,13.12
2019-05-26T05:08:57.753Z,13.30
2019-05-26T05:11:31.313Z,13.44
2019-05-26T05:14:05.219Z,13.52
2019-05-26T05:16:38.795Z,13.58
2019-05-26T05:19:12.416Z,13.66
2019-05-26T05:21:45.917Z,13.77
2019-05-26T05:24:19.472Z,13.91
2019-05-26T05:26:53.031Z,14.08
2019-05-26T05:29:26.565Z,14.22
2019-05-26T05:32:00.039Z,14.30
2019-05-26T05:34:33.716Z,14.38
2019-05-26T05:37:07.366Z,14.50
2019-05-26T05:39:40.823Z,14.62
2019-05-26T05:42:14.389Z,14.71
2019-05-26T05:44:47.870Z,14.77
2019-05-26T05:47:24.420Z,14.88
2019-05-26T05:49:58.002Z,15.02
2019-05-26T05:52:31.493Z,15.17
2019-05-26T05:55:05.949Z,15.25
2019-05-26T05:57:39.571Z,15.34
2019-05-26T06:00:14.807Z,15.39
2019-05-26T06:02:48.406Z,15.50
2019-05-26T06:05:21.897Z,15.66
2019-05-26T06:07:55.431Z,15.73
2019-05-26T06:10:28.985Z,15.82
2019-05-26T06:13:02.469Z,15.98
2019-05-26T06:15:36.008Z,16.15
2019-05-26T06:18:09.661Z,16.38
2019-05-26T06:20:43.785Z,16.61
2019-05-26T06:23:17.273Z,16.73
2019-05-26T06:25:50.807Z,16.91
2019-05-26T06:28:24.363Z,17.01
2019-05-26T06:30:57.898Z,17.01
2019-05-26T06:33:31.453Z,17.02
2019-05-26T06:36:05.071Z,17.05
2019-05-26T06:38:38.638Z,17.17
2019-05-26T06:41:12.101Z,17.31
2019-05-26T06:43:45.713Z,17.40
2019-05-26T06:46:19.315Z,17.47
2019-05-26T06:48:52.955Z,17.61
2019-05-26T06:51:26.425Z,17.69
2019-05-26T06:53:59.987Z,17.62
2019-05-26T06:56:33.529Z,17.67
2019-05-26T06:59:07.179Z,17.80
2019-05-26T07:01:40.661Z,18.04
2019-05-26T07:04:14.219Z,18.27
2019-05-26T07:06:47.688Z,18.32
2019-05-26T07:09:21.259Z,18.20
2019-05-26T07:11:59.976Z,18.21
2019-05-26T07:14:30.084Z,18.30
2019-05-26T07:17:03.648Z,18.45
2019-05-26T07:19:37.122Z,18.51
2019-05-26T07:22:10.666Z,18.69
2019-05-26T07:24:44.146Z,18.78
2019-05-26T07:27:17.632Z,18.90
2019-05-26T07:29:51.200Z,18.87
2019-05-26T07:32:24.839Z,18.96
2019-05-26T07:34:58.333Z,19.06
2019-05-26T07:37:31.934Z,19.26
2019-05-26T07:40:06.891Z,19.46
2019-05-26T07:42:40.360Z,19.53
2019-05-26T07:45:14.293Z,19.55
2019-05-26T07:47:47.764Z,19.61
2019-05-26T07:50:21.379Z,19.57
2019-05-26T07:52:54.916Z,19.76
2019-05-26T07:55:28.633Z,19.86
2019-05-26T07:58:02.210Z,19.81
2019-05-26T08:00:35.852Z,20.24
2019-05-26T08:03:09.281Z,20.48
2019-05-26T08:05:42.853Z,20.35
2019-05-26T08:08:16.483Z,20.27
2019-05-26T08:10:50.464Z,20.23
2019-05-26T08:13:24.082Z,20.24
2019-05-26T08:15:57.562Z,20.43
2019-05-26T08:18:31.189Z,20.68
2019-05-26T08:21:05.018Z,20.81
2019-05-26T08:23:38.521Z,20.59
2019-05-26T08:26:12.324Z,20.56
2019-05-26T08:28:46.024Z,20.44
2019-05-26T08:31:19.678Z,20.55
2019-05-26T08:33:53.254Z,20.57
2019-05-26T08:36:26.960Z,20.55
2019-05-26T08:39:00.594Z,20.48
2019-05-26T08:41:34.299Z,20.45
2019-05-26T08:44:07.993Z,20.52
2019-05-26T08:46:41.614Z,20.64
2019-05-26T08:49:15.154Z,20.89
2019-05-26T08:51:48.797Z,20.94
2019-05-26T08:54:22.330Z,20.72
2019-05-26T08:56:55.895Z,20.50
2019-05-26T08:59:29.431Z,20.26
2019-05-26T09:02:02.991Z,20.14
2019-05-26T09:04:36.419Z,20.22
2019-05-26T09:07:09.990Z,20.27
2019-05-26T09:09:43.566Z,20.25
2019-05-26T09:12:17.142Z,20.19
2019-05-26T09:14:50.851Z,20.21
2019-05-26T09:17:24.428Z,20.32
2019-05-26T09:19:58.247Z,20.25
2019-05-26T09:22:31.983Z,20.12
2019-05-26T09:25:07.186Z,20.05
2019-05-26T09:27:40.872Z,20.11
2019-05-26T09:30:14.579Z,20.11
2019-05-26T09:32:48.320Z,19.98
2019-05-26T09:35:22.004Z,19.99
2019-05-26T09:37:55.473Z,20.00
2019-05-26T09:40:29.157Z,20.19
2019-05-26T09:43:15.146Z,20.27
2019-05-26T09:45:38.216Z,20.39
2019-05-26T09:48:11.753Z,20.51
2019-05-26T09:50:45.421Z,20.59
2019-05-26T09:53:19.018Z,20.66
2019-05-26T09:55:52.673Z,20.66
2019-05-26T09:58:26.330Z,20.74
2019-05-26T10:01:00.009Z,20.82
2019-05-26T10:03:33.579Z,20.81
2019-05-26T10:06:07.098Z,20.83
2019-05-26T10:08:40.720Z,20.97
2019-05-26T10:11:14.319Z,21.26
2019-05-26T10:13:48.009Z,21.51
2019-05-26T10:16:21.478Z,21.48
2019-05-26T10:18:55.019Z,21.49
2019-05-26T10:21:28.605Z,21.53
2019-05-26T10:24:02.053Z,21.58
2019-05-26T10:26:35.677Z,21.60
2019-05-26T10:29:09.415Z,21.72
2019-05-26T10:31:42.899Z,21.79
2019-05-26T10:34:16.377Z,21.89
2019-05-26T10:36:49.878Z,22.05
2019-05-26T10:39:23.348Z,22.04
2019-05-26T10:41:56.830Z,21.98
2019-05-26T10:44:30.368Z,21.73
2019-05-26T10:47:04.032Z,21.63
2019-05-26T10:49:37.507Z,21.56
2019-05-26T10:52:11.006Z,21.65
2019-05-26T10:54:44.517Z,21.69
2019-05-26T10:57:18.078Z,21.60
2019-05-26T10:59:51.601Z,21.64
2019-05-26T11:02:25.234Z,21.79
2019-05-26T11:04:58.812Z,21.77
2019-05-26T11:07:32.265Z,21.53
2019-05-26T11:10:07.861Z,21.42
2019-05-26T11:12:41.481Z,21.09
2019-05-26T11:15:15.398Z,21.15
2019-05-26T11:17:48.963Z,21.63
2019-05-26T11:20:22.686Z,22.23
2019-05-26T11:22:56.344Z,22.57
2019-05-26T11:25:29.980Z,22.90
2019-05-26T11:28:03.659Z,23.17
2019-05-26T11:30:37.281Z,23.39
2019-05-26T11:33:10.807Z,23.45
2019-05-26T11:35:44.345Z,23.78
2019-05-26T11:38:17.902Z,24.10
2019-05-26T11:40:51.440Z,24.32
2019-05-26T11:43:25.057Z,24.60
2019-05-26T11:45:58.678Z,24.63
2019-05-26T11:48:32.141Z,24.50
2019-05-26T11:51:05.840Z,24.48
2019-05-26T11:53:39.554Z,24.52
2019-05-26T11:56:13.197Z,24.47
2019-05-26T11:58:46.914Z,24.40
2019-05-26T12:01:23.133Z,24.48
2019-05-26T12:03:55.827Z,24.55
2019-05-26T12:06:29.438Z,24.66
2019-05-26T12:09:03.758Z,24.98
2019-05-26T12:11:37.324Z,25.36
2019-05-26T12:14:10.888Z,25.41
2019-05-26T12:16:44.351Z,25.23
2019-05-26T12:19:17.859Z,25.18
2019-05-26T12:21:51.323Z,25.09
2019-05-26T12:24:24.989Z,25.19
2019-05-26T12:26:58.514Z,25.26
2019-05-26T12:29:32.076Z,25.53
2019-05-26T12:32:06.088Z,25.65
2019-05-26T12:34:39.726Z,25.47
2019-05-26T12:37:13.193Z,25.28
2019-05-26T12:39:46.695Z,25.19
2019-05-26T12:42:20.242Z,25.12
2019-05-26T12:44:53.792Z,25.33
2019-05-26T12:47:27.258Z,25.60
2019-05-26T12:50:00.756Z,25.53
2019-05-26T12:52:34.290Z,25.38
2019-05-26T12:55:09.892Z,25.24
2019-05-26T12:57:43.614Z,24.89
2019-05-26T13:00:17.904Z,24.56
2019-05-26T13:02:51.439Z,24.47
2019-05-26T13:05:25.238Z,24.53
2019-05-26T13:07:58.886Z,24.97
2019-05-26T13:10:32.532Z,25.39
2019-05-26T13:13:06.905Z,25.60
2019-05-26T13:15:40.578Z,25.35
2019-05-26T13:18:14.328Z,25.39
2019-05-26T13:20:48.102Z,25.37
2019-05-26T13:23:21.655Z,25.37
2019-05-26T13:25:55.280Z,25.14
2019-05-26T13:28:28.832Z,25.16
2019-05-26T13:31:02.489Z,25.42
2019-05-26T13:33:36.113Z,25.57
2019-05-26T13:36:09.762Z,25.44
2019-05-26T13:38:43.508Z,25.26
2019-05-26T13:41:17.229Z,25.29
2019-05-26T13:43:50.793Z,25.24
2019-05-26T13:46:24.440Z,25.20
2019-05-26T13:48:58.073Z,25.33
2019-05-26T13:51:31.766Z,25.43
2019-05-26T13:54:05.605Z,25.74
2019-05-26T13:56:39.194Z,25.88
2019-05-26T13:59:12.852Z,25.61
2019-05-26T14:01:46.614Z,25.21
2019-05-26T14:04:20.214Z,25.19
2019-05-26T14:06:53.799Z,25.36
2019-05-26T14:09:27.435Z,25.61
2019-05-26T14:12:01.133Z,25.81
2019-05-26T14:14:35.260Z,26.08
2019-05-26T14:17:10.670Z,26.12
2019-05-26T14:19:47.186Z,26.13
2019-05-26T14:22:21.017Z,25.91
2019-05-26T14:24:54.626Z,25.64
2019-05-26T14:27:28.303Z,25.64
2019-05-26T14:30:01.984Z,25.80
2019-05-26T14:32:35.588Z,25.86
2019-05-26T14:35:10.041Z,25.71
2019-05-26T14:37:43.757Z,25.59
2019-05-26T14:40:17.531Z,25.42
2019-05-26T14:42:51.655Z,25.49
2019-05-26T14:45:25.378Z,25.63
2019-05-26T14:47:59.092Z,25.47
2019-05-26T14:50:32.716Z,25.46
2019-05-26T14:53:06.378Z,25.40
2019-05-26T14:55:40.086Z,25.41
2019-05-26T14:58:16.045Z,25.38
2019-05-26T15:00:49.244Z,25.21
2019-05-26T15:03:22.953Z,25.00
2019-05-26T15:06:05.558Z,24.68
2019-05-26T15:08:31.755Z,24.20
2019-05-26T15:11:05.785Z,23.78
2019-05-26T15:13:39.394Z,23.43
2019-05-26T15:16:13.126Z,23.13
2019-05-26T15:18:46.787Z,22.88
2019-05-26T15:21:20.540Z,22.72
2019-05-26T15:23:54.185Z,22.61
2019-05-26T15:26:27.914Z,22.55
2019-05-26T15:29:01.664Z,22.47
2019-05-26T15:31:35.321Z,22.39
2019-05-26T15:34:08.955Z,22.30
2019-05-26T15:36:42.697Z,22.24
2019-05-26T15:39:16.373Z,22.17
2019-05-26T15:41:50.112Z,22.03
2019-05-26T15:44:23.729Z,21.94
2019-05-26T15:46:57.339Z,21.87
2019-05-26T15:49:31.010Z,21.79
2019-05-26T15:52:04.659Z,21.66
2019-05-26T15:54:38.373Z,21.55
2019-05-26T15:57:12.075Z,21.55
2019-05-26T15:59:45.689Z,21.64
2019-05-26T16:02:19.396Z,21.80
2019-05-26T16:04:53.072Z,22.09
2019-05-26T16:07:26.727Z,22.52
2019-05-26T16:10:00.332Z,22.96
2019-05-26T16:12:33.838Z,23.57
2019-05-26T16:15:08.857Z,24.03
2019-05-26T16:17:42.431Z,24.23
2019-05-26T16:20:16.435Z,24.14
2019-05-26T16:22:50.082Z,24.07
2019-05-26T16:25:23.695Z,24.11
2019-05-26T16:27:57.462Z,24.10
2019-05-26T16:30:31.116Z,24.11
2019-05-26T16:33:05.423Z,24.11
2019-05-26T16:35:39.144Z,24.04
2019-05-26T16:38:12.711Z,23.86
2019-05-26T16:40:46.457Z,23.77
2019-05-26T16:43:20.193Z,23.73
2019-05-26T16:45:56.426Z,23.69
2019-05-26T16:48:29.095Z,23.58
2019-05-26T16:51:02.763Z,23.48
2019-05-26T16:53:36.329Z,23.36
2019-05-26T16:56:10.059Z,23.17
2019-05-26T16:58:43.529Z,22.94
2019-05-26T17:01:17.206Z,22.81
2019-05-26T17:03:50.819Z,22.63
2019-05-26T17:06:24.633Z,22.48
2019-05-26T17:08:58.369Z,22.39
2019-05-26T17:11:32.046Z,22.33
2019-05-26T17:14:06.194Z,22.25
2019-05-26T17:16:39.892Z,22.20
2019-05-26T17:19:13.517Z,22.15
2019-05-26T17:21:47.204Z,22.08
2019-05-26T17:24:20.792Z,22.01
2019-05-26T17:26:54.452Z,21.95
2019-05-26T17:29:28.120Z,21.90
2019-05-26T17:32:01.829Z,21.88
2019-05-26T17:34:35.478Z,21.84
2019-05-26T17:37:08.988Z,21.81
2019-05-26T17:39:42.599Z,21.80
2019-05-26T17:42:16.310Z,21.74
2019-05-26T17:44:49.923Z,21.67
2019-05-26T17:47:30.311Z,21.58
2019-05-26T17:50:15.052Z,21.51
2019-05-26T17:52:48.700Z,21.46
2019-05-26T17:55:22.370Z,21.42
2019-05-26T17:57:56.039Z,21.38
2019-05-26T18:00:29.688Z,21.33
2019-05-26T18:03:03.245Z,21.27
2019-05-26T18:05:37.008Z,21.22
2019-05-26T18:08:10.580Z,21.18
2019-05-26T18:10:44.282Z,21.14
2019-05-26T18:13:18.093Z,21.11
2019-05-26T18:15:51.751Z,21.09
2019-05-26T18:18:25.424Z,21.04
2019-05-26T18:20:59.032Z,20.99
2019-05-26T18:23:32.779Z,20.95
2019-05-26T18:26:06.491Z,20.92
2019-05-26T18:28:40.110Z,20.84
2019-05-26T18:31:13.774Z,20.73
2019-05-26T18:33:47.385Z,20.58
2019-05-26T18:36:20.994Z,20.42
2019-05-26T18:38:54.843Z,20.21
2019-05-26T18:41:28.324Z,20.02
2019-05-26T18:44:01.973Z,19.82
2019-05-26T18:46:35.641Z,19.63
2019-05-26T18:49:09.331Z,19.51
2019-05-26T18:51:43.096Z,19.40
2019-05-26T18:54:16.863Z,19.22
2019-05-26T18:56:50.371Z,19.00
2019-05-26T18:59:23.992Z,18.79
2019-05-26T19:01:57.620Z,18.62
2019-05-26T19:04:31.161Z,18.47
2019-05-26T19:07:05.072Z,18.35
2019-05-26T19:09:38.722Z,18.28
2019-05-26T19:12:12.710Z,18.19
2019-05-26T19:14:46.314Z,18.09
2019-05-26T19:17:19.961Z,18.00
2019-05-26T19:19:53.817Z,17.93
2019-05-26T19:22:27.531Z,17.83
2019-05-26T19:25:01.239Z,17.73
2019-05-26T19:27:34.981Z,17.66
2019-05-26T19:30:09.850Z,17.58
2019-05-26T19:32:43.582Z,17.51
2019-05-26T19:35:17.377Z,17.44
2019-05-26T19:37:51.006Z,17.38
2019-05-26T19:40:24.709Z,17.35
2019-05-26T19:42:58.341Z,17.34
2019-05-26T19:45:31.990Z,17.30
2019-05-26T19:48:05.746Z,17.28
2019-05-26T19:50:39.401Z,17.24
2019-05-26T19:53:13.059Z,17.20
2019-05-26T19:55:46.676Z,17.19
2019-05-26T19:58:20.160Z,17.16
2019-05-26T20:00:53.860Z,17.10
2019-05-26T20:03:27.607Z,17.02
2019-05-26T20:06:01.282Z,16.98
2019-05-26T20:08:35.628Z,16.95
2019-05-26T20:11:09.311Z,16.91
2019-05-26T20:13:42.951Z,16.88
2019-05-26T20:16:16.761Z,16.88
2019-05-26T20:18:50.377Z,16.88
2019-05-26T20:21:23.985Z,16.93
2019-05-26T20:23:57.544Z,16.95
2019-05-26T20:26:31.209Z,16.99
2019-05-26T20:29:05.077Z,17.02
2019-05-26T20:31:38.665Z,17.07
2019-05-26T20:34:12.250Z,17.08
2019-05-26T20:36:45.952Z,17.10
2019-05-26T20:39:19.618Z,17.15
2019-05-26T20:41:53.159Z,17.18
2019-05-26T20:44:26.707Z,17.23
2019-05-26T20:47:00.227Z,17.26
2019-05-26T20:49:44.881Z,17.29
2019-05-26T20:52:09.019Z,17.31
2019-05-26T20:54:42.493Z,17.32
2019-05-26T20:57:15.993Z,17.33
2019-05-26T20:59:49.622Z,17.36
2019-05-26T21:02:23.129Z,17.36
2019-05-26T21:04:56.621Z,17.40
2019-05-26T21:07:30.127Z,17.43
2019-05-26T21:10:05.236Z,17.44
2019-05-26T21:12:38.961Z,17.44
2019-05-26T21:15:13.075Z,17.42
2019-05-26T21:17:46.577Z,17.39
2019-05-26T21:20:20.717Z,17.38
2019-05-26T21:22:54.385Z,17.37
2019-05-26T21:25:27.927Z,17.36
2019-05-26T21:28:01.567Z,17.37
2019-05-26T21:30:35.973Z,17.36
2019-05-26T21:33:09.539Z,17.38
2019-05-26T21:35:43.025Z,17.40
2019-05-26T21:38:16.568Z,17.43
2019-05-26T21:40:50.072Z,17.47
2019-05-26T21:43:23.559Z,17.50
2019-05-26T21:45:57.119Z,17.54
2019-05-26T21:48:30.745Z,17.59
2019-05-26T21:51:04.424Z,17.62
2019-05-26T21:53:37.985Z,17.64
2019-05-26T21:56:11.628Z,17.67
2019-05-26T21:58:45.123Z,17.69
2019-05-26T22:01:18.659Z,17.70
2019-05-26T22:03:52.244Z,17.71
2019-05-26T22:06:25.855Z,17.71
2019-05-26T22:08:59.424Z,17.73
2019-05-26T22:11:32.987Z,17.76
2019-05-26T22:14:06.631Z,17.76
2019-05-26T22:16:40.119Z,17.79
2019-05-26T22:19:13.636Z,17.81
2019-05-26T22:21:47.178Z,17.83
2019-05-26T22:24:20.717Z,17.85
2019-05-26T22:26:54.264Z,17.88
2019-05-26T22:29:27.762Z,17.91
2019-05-26T22:32:01.241Z,17.92
2019-05-26T22:34:34.756Z,17.94
2019-05-26T22:37:08.310Z,17.96
2019-05-26T22:39:41.876Z,17.98
2019-05-26T22:42:15.360Z,18.02
2019-05-26T22:44:49.050Z,18.04
2019-05-26T22:47:22.519Z,18.05
2019-05-26T22:49:57.754Z,18.04
2019-05-26T22:52:31.241Z,18.01
2019-05-26T22:55:09.003Z,17.94
2019-05-26T22:57:42.488Z,17.76
2019-05-26T23:00:18.137Z,17.54
2019-05-26T23:02:51.648Z,17.35
2019-05-26T23:05:25.158Z,17.22
2019-05-26T23:07:58.648Z,17.10
2019-05-26T23:10:32.147Z,16.98
2019-05-26T23:13:05.740Z,16.89
2019-05-26T23:15:39.201Z,16.80
2019-05-26T23:18:12.688Z,16.76
2019-05-26T23:20:46.338Z,16.72
2019-05-26T23:23:19.802Z,16.70
2019-05-26T23:25:53.439Z,16.66
2019-05-26T23:28:26.988Z,16.65
2019-05-26T23:31:00.549Z,16.64
2019-05-26T23:33:34.019Z,16.62
2019-05-26T23:36:07.614Z,16.59
2019-05-26T23:38:41.095Z,16.58
2019-05-26T23:41:14.636Z,16.57
2019-05-26T23:43:48.102Z,16.57
2019-05-26T23:46:21.675Z,16.55
2019-05-26T23:48:55.144Z,16.53
2019-05-26T23:51:28.736Z,16.52
2019-05-26T23:54:02.217Z,16.50
2019-05-26T23:56:35.714Z,16.45
2019-05-26T23:59:09.199Z,16.45
